»·PEaware :: N695DS KSNA-KRNM

N695DS :: KSNA-KRNM

FLIGHT INFORMATION

Flight Status: Arrived
Operator: Privately registered:
United States
More flights under this callsign
Pilot: Christopher S. (2105)
Aircraft: Unknown
(DA62)
More flights by this aircraft type
Origin: KSNA John Wayne-Orange Co
United States
Destination: KRNM Ramona
United States
More flights between these airports :: More routes between these airports
Route: +V23 OCN V208 JLI
File this flight plan on PilotEdge
Remarks: TEC route CSTP32
Altitude:
(Current/Filed)
7,000ft
Speed:
(Current/Filed)
170kts
Departed: 08-Jan-20 07:33 PM
Arrived: 08-Jan-20 08:12 PM
Distance/Time
Traveled:
61nm/0:39
Distance/Time
To Go:
Arrived

Flight Plot

Page will automatically refresh every two minutes.


Map Options




Map Legend


Flown Route
Filed Route
Departure Airport
Arrival Airport
Navaid (VOR, NDB)
Fix

Horizontal Profiles

Position Reports

Time Latitude Longitude Heading Altitude Ground
Speed
08-Jan-20 19:14 33.670659 -117.868000 215 60ft 0kts
08-Jan-20 19:15 33.670659 -117.868000 215 60ft 0kts
08-Jan-20 19:16 33.670659 -117.868000 215 60ft 0kts
08-Jan-20 19:17 33.670659 -117.868000 215 60ft 0kts
08-Jan-20 19:18 33.670659 -117.868000 215 60ft 0kts
08-Jan-20 19:19 33.670659 -117.868000 215 60ft 0kts
08-Jan-20 19:20 33.670659 -117.868000 215 60ft 0kts
08-Jan-20 19:21 33.670659 -117.868000 215 60ft 0kts
08-Jan-20 19:22 33.670659 -117.868000 215 60ft 0kts
08-Jan-20 19:23 33.670659 -117.868000 215 60ft 0kts
08-Jan-20 19:24 33.670832 -117.868282 314 60ft 5kts
08-Jan-20 19:25 33.672737 -117.867701 35 60ft 11kts
08-Jan-20 19:26 33.675042 -117.866483 27 60ft 10kts
08-Jan-20 19:27 33.678147 -117.864521 27 60ft 14kts
08-Jan-20 19:28 33.679971 -117.863666 303 60ft 1kts
08-Jan-20 19:29 33.679974 -117.863674 299 60ft 0kts
08-Jan-20 19:30 33.679974 -117.863673 299 60ft 0kts
08-Jan-20 19:31 33.679974 -117.863673 299 60ft 0kts
08-Jan-20 19:32 33.678093 -117.865427 207 60ft 64kts
08-Jan-20 19:33 33.654398 -117.877003 191 923ft 107kts
08-Jan-20 19:34 33.622535 -117.882057 186 1948ft 123kts
08-Jan-20 19:35 33.585920 -117.887623 187 2824ft 136kts
08-Jan-20 19:36 33.547826 -117.893075 187 3772ft 140kts
08-Jan-20 19:37 33.508790 -117.897727 174 4697ft 144kts
08-Jan-20 19:39 33.490567 -117.858856 101 5605ft 143kts
08-Jan-20 19:40 33.479733 -117.812218 101 6504ft 147kts
08-Jan-20 19:41 33.468245 -117.762770 101 7017ft 171kts
08-Jan-20 19:42 33.455091 -117.704158 101 7011ft 187kts
08-Jan-20 19:43 33.435808 -117.646282 129 7012ft 192kts
08-Jan-20 19:44 33.397914 -117.601101 134 7009ft 192kts
08-Jan-20 19:45 33.359617 -117.556364 134 7010ft 192kts
08-Jan-20 19:46 33.321226 -117.511569 134 7010ft 193kts
08-Jan-20 19:47 33.282677 -117.466626 134 7010ft 193kts
08-Jan-20 19:48 33.244966 -117.421036 116 6997ft 192kts
08-Jan-20 19:49 33.233920 -117.360457 93 7010ft 186kts
08-Jan-20 19:50 33.226784 -117.299748 93 7010ft 183kts
08-Jan-20 19:51 33.219708 -117.239824 93 7010ft 180kts
08-Jan-20 19:52 33.212766 -117.180707 102 7006ft 179kts
08-Jan-20 19:53 33.205630 -117.121553 101 7007ft 180kts
08-Jan-20 19:54 33.199064 -117.066208 103 7005ft 159kts
08-Jan-20 19:55 33.192875 -117.015681 91 7006ft 147kts
08-Jan-20 19:56 33.187269 -116.968436 92 7009ft 142kts
08-Jan-20 19:57 33.181551 -116.920970 93 7011ft 147kts
08-Jan-20 19:58 33.175545 -116.871454 94 6993ft 154kts
08-Jan-20 19:59 33.169271 -116.820241 94 6983ft 156kts
08-Jan-20 19:59 33.164143 -116.778331 94 6980ft 149kts
08-Jan-20 20:01 33.155832 -116.722933 123 6980ft 146kts
08-Jan-20 20:02 33.121501 -116.697229 156 6845ft 154kts
08-Jan-20 20:02 33.096418 -116.714977 261 6296ft 150kts
08-Jan-20 20:04 33.081251 -116.770671 254 5446ft 147kts
08-Jan-20 20:04 33.070859 -116.806438 259 4792ft 114kts
08-Jan-20 20:05 33.061216 -116.839069 256 4129ft 99kts
08-Jan-20 20:06 33.052264 -116.869962 257 3493ft 97kts
08-Jan-20 20:07 33.043569 -116.900313 254 2917ft 96kts
08-Jan-20 20:08 33.028231 -116.923062 165 2486ft 95kts
08-Jan-20 20:09 33.020287 -116.897218 93 2306ft 89kts
08-Jan-20 20:10 33.036009 -116.898776 296 1831ft 83kts
08-Jan-20 20:11 33.039839 -116.919572 279 1391ft 17kts
08-Jan-20 20:12 33.040296 -116.919957 16 1392ft 0kts
08-Jan-20 20:13 33.040033 -116.916440 99 1392ft 19kts
08-Jan-20 20:14 33.039884 -116.911752 311 1394ft 0kts

Navigation Log

Ident Type
Flight plan parsing failed, navigation log unavailable